Time;durP1;ratioP1;P1;durP2;ratioP2;P2;SDS_P1;SDS_P2;PMS_P1;PMS_P2;Temp;Humidity;BMP_temperature;BMP_pressure;BME280_temperature;BME280_humidity;BME280_pressure;Samples;Min_cycle;Max_cycle;Signal;HPM_P1;HPM_P2
2021/12/13 00:00:26;;;;;;;;;21.75;21.25;;;;;13.31;69.97;102121.78;2060469;28;47508;-61
2021/12/13 00:01:36;;;;;;;;;24.60;21.80;;;;;13.31;69.93;102125.34;2045628;28;46916;-61
2021/12/13 00:02:37;;;;;;;;;25.40;24.80;;;;;13.31;69.90;102114.69;2048403;28;46720;-61
2021/12/13 00:03:38;;;;;;;;;22.75;22.50;;;;;13.31;69.94;102111.13;2062690;28;46452;-60
2021/12/13 00:04:44;;;;;;;;;21.00;21.00;;;;;13.32;69.85;102115.56;2067573;28;47995;-61
2021/12/13 00:05:50;;;;;;;;;24.50;22.75;;;;;13.31;69.89;102119.13;2067401;28;45683;-62
2021/12/13 00:07:04;;;;;;;;;23.50;22.25;;;;;13.31;69.82;102114.69;2069558;28;47229;-62
2021/12/13 00:08:10;;;;;;;;;23.00;22.00;;;;;13.31;69.97;102117.34;2066587;28;46696;-61
2021/12/13 00:09:13;;;;;;;;;26.25;21.50;;;;;13.32;69.81;102112.91;2068920;28;47369;-60
2021/12/13 00:10:19;;;;;;;;;23.67;22.33;;;;;13.29;69.98;102111.16;2062291;28;47397;-61
2021/12/13 00:11:23;;;;;;;;;24.75;21.00;;;;;13.31;70.01;102116.47;2062532;28;48516;-61
2021/12/13 00:12:29;;;;;;;;;25.40;21.60;;;;;13.29;69.90;102116.47;2061964;28;47526;-61
2021/12/13 00:13:45;;;;;;;;;21.60;20.80;;;;;13.30;69.87;102117.38;2062411;28;48920;-61
2021/12/13 00:14:50;;;;;;;;;22.00;22.00;;;;;13.29;69.91;102111.16;2053806;28;47249;-60
2021/12/13 00:15:56;;;;;;;;;25.00;21.50;;;;;13.31;69.68;102111.13;2054130;28;47175;-60
2021/12/13 00:17:21;;;;;;;;;24.20;24.20;;;;;13.29;69.77;102113.81;2062930;28;48081;-60
2021/12/13 00:18:33;;;;;;;;;24.00;23.00;;;;;13.29;69.99;102099.59;2062497;28;47832;-61
2021/12/13 00:19:39;;;;;;;;;22.00;21.50;;;;;13.31;69.91;102104.00;2062204;28;47860;-62
2021/12/13 00:20:45;;;;;;;;;22.40;20.40;;;;;13.31;69.83;102097.78;2053935;28;48395;-60
2021/12/13 00:22:13;;;;;;;;;23.40;22.40;;;;;13.30;69.71;102099.59;2053657;28;47652;-60
2021/12/13 00:23:30;;;;;;;;;20.75;20.50;;;;;13.30;69.75;102104.03;2061967;28;48559;-61
2021/12/13 00:24:39;;;;;;;;;21.25;18.25;;;;;13.28;69.82;102088.06;2062324;28;48447;-61
2021/12/13 00:25:43;;;;;;;;;23.00;21.80;;;;;13.28;69.59;102093.38;2061048;28;47331;-62
2021/12/13 00:26:47;;;;;;;;;18.50;18.50;;;;;13.29;69.79;102088.94;2062284;28;47186;-61
2021/12/13 00:28:13;;;;;;;;;21.80;21.20;;;;;13.28;69.85;102093.38;2062804;28;47681;-61
2021/12/13 00:29:18;;;;;;;;;21.50;19.00;;;;;13.27;69.71;102091.63;2061126;28;46978;-61
2021/12/13 00:31:01;;;;;;;;;20.00;20.00;;;;;13.27;69.75;102093.41;2061257;28;47413;-60
2021/12/13 00:32:19;;;;;;;;;18.50;18.00;;;;;13.27;69.77;102091.63;2052604;28;47039;-60
2021/12/13 00:33:32;;;;;;;;;20.50;20.50;;;;;13.27;69.64;102086.28;2062874;28;48163;-60
2021/12/13 00:34:40;;;;;;;;;21.50;21.50;;;;;13.26;69.66;102092.53;2062063;28;45472;-61
2021/12/13 00:35:52;;;;;;;;;19.00;19.00;;;;;13.27;69.80;102088.06;2061288;28;48176;-61
2021/12/13 00:37:05;;;;;;;;;19.75;19.75;;;;;13.27;69.76;102088.06;2062290;28;48617;-61
2021/12/13 00:38:08;;;;;;;;;17.00;16.00;;;;;13.25;69.76;102080.97;2061437;28;46009;-61
2021/12/13 00:39:18;;;;;;;;;18.50;17.50;;;;;13.25;69.77;102088.97;2056169;28;47688;-60
2021/12/13 00:40:24;;;;;;;;;20.60;19.80;;;;;13.26;69.69;102084.53;2060662;28;47915;-60
2021/12/13 00:41:28;;;;;;;;;23.00;21.50;;;;;13.26;69.69;102089.88;2062186;28;47842;-60
2021/12/13 00:42:35;;;;;;;;;13.00;13.00;;;;;13.27;69.70;102091.63;2045271;28;47652;-60
2021/12/13 00:43:41;;;;;;;;;21.00;19.25;;;;;13.27;69.79;102088.06;2047384;28;46955;-60
2021/12/13 00:44:46;;;;;;;;;22.50;20.25;;;;;13.28;69.82;102084.50;2061043;28;48120;-61
2021/12/13 00:45:59;;;;;;;;;24.00;19.25;;;;;13.27;69.44;102080.97;2060377;28;48091;-61
2021/12/13 00:47:06;;;;;;;;;20.25;18.75;;;;;13.28;69.77;102085.38;2062588;28;45986;-61
2021/12/13 00:48:08;;;;;;;;;21.25;21.00;;;;;13.28;69.61;102085.38;2062231;28;47181;-61
2021/12/13 00:49:11;;;;;;;;;17.40;16.20;;;;;13.27;69.77;102083.63;2061773;28;47172;-63
2021/12/13 00:50:19;;;;;;;;;21.00;19.75;;;;;13.27;69.68;102088.97;2059999;28;48435;-61
2021/12/13 00:51:27;;;;;;;;;19.00;18.40;;;;;13.28;69.77;102084.50;2060622;28;47283;-61
2021/12/13 00:52:32;;;;;;;;;20.60;19.40;;;;;13.28;69.61;102084.50;2060238;28;48181;-61
2021/12/13 00:53:36;;;;;;;;;22.00;20.75;;;;;13.27;69.68;102085.41;2062688;28;48501;-61
2021/12/13 00:54:38;;;;;;;;;17.80;17.40;;;;;13.25;69.64;102080.97;2062207;28;48414;-61
2021/12/13 00:55:42;;;;;;;;;20.00;18.50;;;;;13.26;69.90;102089.88;2061289;28;46965;-60
2021/12/13 00:56:50;;;;;;;;;19.80;17.80;;;;;13.27;69.72;102085.41;2062496;28;47082;-61
2021/12/13 00:58:12;;;;;;;;;18.75;16.25;;;;;13.27;69.80;102088.97;2062513;28;48219;-61
2021/12/13 00:59:19;;;;;;;;;23.00;22.00;;;;;13.27;69.81;102093.41;2061559;28;47256;-61
2021/12/13 01:00:33;;;;;;;;;20.00;20.00;;;;;13.27;69.71;102090.75;2058034;28;47271;-61
2021/12/13 01:01:35;;;;;;;;;21.25;18.25;;;;;13.27;69.54;102091.63;2062164;28;46758;-61
2021/12/13 01:02:48;;;;;;;;;21.75;20.00;;;;;13.28;69.79;102087.19;2062476;28;47303;-59
2021/12/13 01:03:50;;;;;;;;;21.20;20.60;;;;;13.27;69.70;102094.28;2060718;28;47703;-60
2021/12/13 01:05:12;;;;;;;;;19.40;19.40;;;;;13.27;69.61;102096.06;2061173;28;46392;-61
2021/12/13 01:06:50;;;;;;;;;19.50;19.50;;;;;13.27;69.67;102094.28;2060182;28;46889;-61
2021/12/13 01:08:18;;;;;;;;;21.75;20.75;;;;;13.27;69.57;102096.06;2060459;28;47662;-61
2021/12/13 01:09:21;;;;;;;;;19.50;15.50;;;;;13.27;69.63;102093.41;2053866;28;48408;-61
2021/12/13 01:10:50;;;;;;;;;16.25;15.75;;;;;13.26;69.59;102092.53;2060251;28;47242;-61
2021/12/13 01:12:02;;;;;;;;;19.00;18.00;;;;;13.25;69.60;102094.31;2060865;28;47997;-61
2021/12/13 01:13:07;;;;;;;;;15.25;14.25;;;;;13.26;69.52;102097.84;2062109;28;47136;-61
2021/12/13 01:14:10;;;;;;;;;23.25;20.00;;;;;13.25;69.60;102085.44;2061791;28;46132;-61
2021/12/13 01:15:27;;;;;;;;;18.75;16.00;;;;;13.26;69.49;102089.88;2060513;28;48233;-61
2021/12/13 01:16:51;;;;;;;;;23.00;21.25;;;;;13.26;69.46;102092.53;2061948;28;48144;-60
2021/12/13 01:19:48;;;;;;;;;22.40;20.20;;;;;13.27;69.60;102088.06;2059299;28;48323;-60
2021/12/13 01:20:33;;;;;;;;;20.80;19.40;;;;;13.28;69.40;102084.50;2054688;28;47451;-60
2021/12/13 01:21:42;;;;;;;;;21.20;18.20;;;;;13.28;69.52;102089.84;2061795;28;45890;-60
2021/12/13 01:22:54;;;;;;;;;21.20;19.20;;;;;13.27;69.60;102091.63;2060264;28;47070;-60
2021/12/13 01:24:04;;;;;;;;;13.60;12.20;;;;;13.28;69.62;102092.50;2061677;28;48461;-60
2021/12/13 01:25:23;;;;;;;;;23.75;21.00;;;;;13.27;69.69;102080.97;2060779;28;48476;-60
2021/12/13 01:26:37;;;;;;;;;18.50;16.75;;;;;13.28;69.76;102087.19;2061219;28;46267;-60
2021/12/13 01:27:43;;;;;;;;;26.00;22.80;;;;;13.27;69.60;102091.63;2061939;28;47930;-61
2021/12/13 01:28:51;;;;;;;;;20.40;19.20;;;;;13.27;69.67;102085.41;2062001;28;47607;-61
2021/12/13 01:29:52;;;;;;;;;19.40;18.80;;;;;13.27;69.59;102094.28;2060693;28;48396;-61
2021/12/13 01:30:57;;;;;;;;;21.75;20.75;;;;;13.29;69.65;102086.28;2060896;28;47944;-60
2021/12/13 01:32:11;;;;;;;;;22.40;20.60;;;;;13.28;69.70;102082.72;2061579;28;47158;-61
2021/12/13 01:33:14;;;;;;;;;21.20;19.20;;;;;13.28;69.47;102079.19;2062279;28;47290;-60
2021/12/13 01:34:16;;;;;;;;;17.20;16.00;;;;;13.28;69.62;102087.19;2061985;28;46954;-61
2021/12/13 01:35:32;;;;;;;;;21.60;21.60;;;;;13.29;69.68;102087.16;2060346;28;48436;-61
2021/12/13 01:36:49;;;;;;;;;19.50;18.75;;;;;13.29;69.58;102078.28;2063411;28;47483;-61
2021/12/13 01:37:53;;;;;;;;;20.50;17.25;;;;;13.30;69.49;102082.69;2059071;28;47390;-61
2021/12/13 01:39:05;;;;;;;;;21.60;21.60;;;;;13.30;69.61;102088.03;2063138;28;47821;-61
2021/12/13 01:40:12;;;;;;;;;25.80;20.20;;;;;13.29;69.38;102087.16;2061457;28;48045;-61
2021/12/13 01:41:18;;;;;;;;;23.00;19.00;;;;;13.29;69.75;102084.50;2062863;28;46970;-60
2021/12/13 01:42:26;;;;;;;;;20.50;20.00;;;;;13.30;69.45;102093.38;2063557;28;47107;-61
2021/12/13 01:43:30;;;;;;;;;20.50;18.75;;;;;13.28;69.41;102090.72;2063603;28;46885;-61
2021/12/13 01:44:40;;;;;;;;;18.25;18.25;;;;;13.31;69.64;102095.13;2063260;28;48183;-61
2021/12/13 01:45:46;;;;;;;;;19.25;17.25;;;;;13.29;69.42;102095.16;2059681;28;47472;-60
2021/12/13 01:46:53;;;;;;;;;18.50;16.75;;;;;13.29;69.72;102095.16;2063534;28;47233;-61
2021/12/13 01:47:55;;;;;;;;;20.20;16.80;;;;;13.31;69.55;102092.47;2063578;28;45409;-61
2021/12/13 01:48:57;;;;;;;;;21.00;19.25;;;;;13.30;69.47;102093.38;2063766;28;47072;-60
2021/12/13 01:50:17;;;;;;;;;21.75;21.75;;;;;13.30;69.56;102096.91;2061894;28;48015;-60
2021/12/13 01:51:21;;;;;;;;;22.00;21.00;;;;;13.29;69.57;102095.16;2062202;28;47194;-61
2021/12/13 01:52:35;;;;;;;;;18.50;18.50;;;;;13.29;69.42;102092.50;2063296;28;48340;-61
2021/12/13 01:53:48;;;;;;;;;17.00;16.50;;;;;13.30;69.52;102093.38;2063377;28;47411;-61
2021/12/13 01:54:49;;;;;;;;;20.00;19.00;;;;;13.29;69.75;102097.81;2058914;28;45279;-61
2021/12/13 01:55:50;;;;;;;;;15.75;15.75;;;;;13.29;69.64;102102.28;2063227;28;45341;-59
2021/12/13 01:57:22;;;;;;;;;19.25;17.50;;;;;13.28;69.37;102101.38;2063404;28;47325;-61
2021/12/13 02:02:08;;;;;;;;;23.00;20.50;;;;;13.27;69.53;102091.63;2059974;28;48439;-61
2021/12/13 02:03:09;;;;;;;;;25.60;24.60;;;;;13.27;69.61;102090.75;2063732;28;46818;-61
2021/12/13 02:04:13;;;;;;;;;21.00;18.75;;;;;13.27;69.66;102086.28;2063278;28;46906;-62
2021/12/13 02:05:18;;;;;;;;;24.25;22.00;;;;;13.26;69.63;102089.88;2062614;28;47396;-60
2021/12/13 02:06:39;;;;;;;;;21.40;20.00;;;;;13.27;69.67;102091.63;2062453;28;47835;-61
2021/12/13 02:07:44;;;;;;;;;24.75;22.00;;;;;13.27;69.62;102088.06;2062781;28;47416;-61
2021/12/13 02:08:51;;;;;;;;;23.25;20.75;;;;;13.27;69.50;102085.41;2063719;28;47720;-61
2021/12/13 02:09:52;;;;;;;;;18.50;16.75;;;;;13.28;69.60;102098.72;2061172;28;47307;-60
2021/12/13 02:10:55;;;;;;;;;17.00;16.75;;;;;13.28;69.40;102101.38;2062357;28;47627;-60
2021/12/13 02:11:59;;;;;;;;;17.75;14.50;;;;;13.27;69.57;102096.97;2062910;28;47493;-60
2021/12/13 02:13:06;;;;;;;;;15.25;14.50;;;;;13.27;69.50;102096.97;2057677;28;48093;-59
2021/12/13 02:14:16;;;;;;;;;19.00;17.75;;;;;13.27;69.59;102096.06;2063237;28;47002;-60
2021/12/13 02:17:03;;;;;;;;;16.50;16.00;;;;;13.27;69.69;102096.06;2061173;28;46796;-60
2021/12/13 02:18:04;;;;;;;;;24.00;20.50;;;;;13.26;69.53;102095.19;2063230;28;48400;-60
2021/12/13 02:19:04;;;;;;;;;21.25;20.50;;;;;13.28;69.47;102097.84;2063232;28;45378;-61
2021/12/13 02:20:14;;;;;;;;;22.50;22.50;;;;;13.27;69.41;102102.28;2061893;28;48196;-60
2021/12/13 02:21:26;;;;;;;;;21.00;21.00;;;;;13.28;69.51;102100.50;2059408;28;47256;-60
2021/12/13 02:22:50;;;;;;;;;22.60;21.60;;;;;13.27;69.67;102099.63;2061492;28;48302;-60
2021/12/13 02:23:54;;;;;;;;;20.25;18.25;;;;;13.28;69.73;102104.06;2062945;28;47274;-60
2021/12/13 02:24:58;;;;;;;;;24.00;22.40;;;;;13.29;69.57;102107.59;2061103;28;47698;-60
2021/12/13 02:25:58;;;;;;;;;23.50;21.75;;;;;13.29;69.67;102104.94;2063018;28;48267;-61
2021/12/13 02:26:59;;;;;;;;;21.00;20.25;;;;;13.28;69.61;102103.16;2065496;28;47136;-60
2021/12/13 02:28:05;;;;;;;;;19.00;19.00;;;;;13.28;69.51;102104.06;2063338;28;47375;-60
2021/12/13 02:29:11;;;;;;;;;21.50;17.75;;;;;13.28;69.43;102101.38;2063167;28;47405;-60
2021/12/13 02:30:40;;;;;;;;;20.00;19.00;;;;;13.28;69.54;102103.16;2060532;28;47025;-60
2021/12/13 02:31:41;;;;;;;;;19.60;17.60;;;;;13.28;69.78;102105.84;2062300;28;47650;-60
2021/12/13 02:32:43;;;;;;;;;20.00;18.50;;;;;13.27;69.50;102106.75;2063445;28;47066;-59
2021/12/13 02:33:57;;;;;;;;;22.60;20.40;;;;;13.28;69.49;102108.50;2063046;28;47226;-60
2021/12/13 02:34:59;;;;;;;;;18.00;17.40;;;;;13.28;69.53;102103.16;2062729;28;48381;-60
2021/12/13 02:36:11;;;;;;;;;21.80;19.80;;;;;13.27;69.54;102104.06;2059522;28;47344;-60
2021/12/13 02:37:12;;;;;;;;;22.75;18.50;;;;;13.27;69.55;102101.41;2063542;28;48234;-60
2021/12/13 02:38:14;;;;;;;;;19.20;18.60;;;;;13.27;69.56;102104.97;2062787;28;47426;-61
2021/12/13 02:39:22;;;;;;;;;21.40;19.20;;;;;13.27;69.59;102102.28;2063068;28;47412;-61
2021/12/13 02:40:22;;;;;;;;;20.80;20.80;;;;;13.27;69.53;102104.06;2055155;28;48258;-61
2021/12/13 02:41:26;;;;;;;;;22.50;20.00;;;;;13.28;69.59;102097.84;2051204;28;46197;-60
2021/12/13 02:42:29;;;;;;;;;19.75;18.00;;;;;13.27;69.49;102093.41;2062897;28;47290;-59
2021/12/13 02:43:35;;;;;;;;;20.50;19.50;;;;;13.27;69.75;102098.75;2063375;28;47965;-60
2021/12/13 02:44:41;;;;;;;;;23.00;20.20;;;;;13.27;69.60;102099.63;2062724;28;47061;-61
2021/12/13 02:45:47;;;;;;;;;19.80;19.40;;;;;13.27;69.49;102098.75;2062382;28;45513;-59
2021/12/13 02:46:47;;;;;;;;;22.60;22.60;;;;;13.26;69.59;102095.19;2054831;28;47186;-60
2021/12/13 02:47:56;;;;;;;;;23.50;21.00;;;;;13.27;69.67;102099.63;2054510;28;46736;-60
2021/12/13 02:49:02;;;;;;;;;20.40;19.20;;;;;13.27;69.57;102099.63;2058659;28;47744;-61
2021/12/13 02:50:07;;;;;;;;;19.80;19.40;;;;;13.27;69.53;102093.41;2050826;28;47934;-60
2021/12/13 02:51:17;;;;;;;;;19.00;18.80;;;;;13.28;69.33;102103.16;2048907;28;48349;-60
2021/12/13 02:52:21;;;;;;;;;16.80;16.60;;;;;13.27;69.62;102094.28;2055787;28;48088;-60
2021/12/13 02:53:35;;;;;;;;;21.60;20.00;;;;;13.27;69.59;102099.63;2058233;28;48214;-60
2021/12/13 02:54:49;;;;;;;;;19.60;19.20;;;;;13.28;69.56;102093.38;2059144;28;47330;-60
2021/12/13 02:55:50;;;;;;;;;20.60;19.00;;;;;13.27;69.62;102096.97;2061691;28;47646;-61
2021/12/13 02:56:55;;;;;;;;;17.75;17.75;;;;;13.27;69.60;102096.06;2063378;28;47247;-61
2021/12/13 02:58:06;;;;;;;;;26.00;23.25;;;;;13.27;69.65;102096.97;2062880;28;47311;-61
2021/12/13 02:59:09;;;;;;;;;21.20;20.80;;;;;13.28;69.51;102097.84;2063213;28;47570;-60
2021/12/13 03:00:14;;;;;;;;;25.40;22.00;;;;;13.28;69.44;102089.84;2061800;28;47910;-61
2021/12/13 03:01:22;;;;;;;;;18.80;18.00;;;;;13.26;69.53;102089.88;2062606;28;45644;-61
2021/12/13 03:02:36;;;;;;;;;25.20;21.60;;;;;13.26;69.55;102089.88;2060231;28;47785;-60
2021/12/13 03:03:42;;;;;;;;;16.80;16.80;;;;;13.25;69.27;102088.09;2063318;28;48586;-60
2021/12/13 03:04:43;;;;;;;;;17.25;16.00;;;;;13.25;69.38;102088.97;2053976;28;48482;-60
2021/12/13 03:05:48;;;;;;;;;23.50;21.25;;;;;13.25;69.44;102086.31;2054035;28;47779;-60
2021/12/13 03:06:53;;;;;;;;;17.20;15.40;;;;;13.25;69.66;102088.97;2063296;28;47172;-61
2021/12/13 03:07:58;;;;;;;;;23.20;18.80;;;;;13.24;69.47;102089.88;2062770;28;47267;-61
2021/12/13 03:09:22;;;;;;;;;24.60;22.60;;;;;13.24;69.52;102086.34;2062940;28;47516;-60
2021/12/13 03:10:33;;;;;;;;;18.20;15.80;;;;;13.24;69.50;102089.00;2059695;28;45758;-60
2021/12/13 03:11:34;;;;;;;;;18.75;16.50;;;;;13.24;69.39;102091.66;2063172;28;47583;-61
2021/12/13 03:12:35;;;;;;;;;22.60;17.80;;;;;13.23;69.53;102090.78;2062712;28;47181;-61
2021/12/13 03:13:36;;;;;;;;;18.25;16.75;;;;;13.24;69.49;102089.00;2062693;28;47385;-59
2021/12/13 03:14:42;;;;;;;;;18.67;17.33;;;;;13.23;69.45;102090.78;2062395;28;47949;-60
2021/12/13 03:15:48;;;;;;;;;17.40;13.40;;;;;13.23;69.35;102090.78;2061871;28;47349;-60
2021/12/13 03:16:55;;;;;;;;;18.50;17.50;;;;;13.24;69.72;102097.00;2063095;28;47761;-60
2021/12/13 03:18:00;;;;;;;;;18.50;14.75;;;;;13.24;69.33;102094.34;2062891;28;48566;-60
2021/12/13 03:19:09;;;;;;;;;18.50;14.75;;;;;13.23;69.31;102092.56;2062720;28;47474;-60
2021/12/13 03:20:23;;;;;;;;;18.40;17.40;;;;;13.23;69.39;102095.25;2060460;28;48578;-60
2021/12/13 03:22:01;;;;;;;;;21.40;19.00;;;;;13.22;69.40;102090.81;2062921;28;47387;-62
2021/12/13 03:23:16;;;;;;;;;21.00;19.50;;;;;13.23;69.29;102089.91;2058856;28;48091;-60
2021/12/13 03:24:36;;;;;;;;;15.25;14.25;;;;;13.22;69.40;102088.13;2062643;28;47483;-60
2021/12/13 03:25:45;;;;;;;;;18.50;16.50;;;;;13.21;69.42;102084.59;2060886;28;47971;-60
2021/12/13 03:26:57;;;;;;;;;16.75;14.75;;;;;13.21;69.41;102091.66;2060491;28;46976;-61
2021/12/13 03:28:33;;;;;;;;;17.50;15.25;;;;;13.20;69.35;102089.91;2062732;28;48100;-60
2021/12/13 03:29:59;;;;;;;;;16.50;15.00;;;;;13.19;69.55;102093.47;2062606;28;47442;-60
2021/12/13 03:31:11;;;;;;;;;14.25;13.50;;;;;13.18;69.35;102089.94;2057821;28;47158;-61
2021/12/13 03:32:15;;;;;;;;;20.75;16.75;;;;;13.18;69.40;102087.25;2062891;28;46929;-60
2021/12/13 03:33:21;;;;;;;;;18.75;18.50;;;;;13.19;69.39;102088.16;2063015;28;46537;-61
2021/12/13 03:34:26;;;;;;;;;17.50;16.75;;;;;13.18;69.52;102083.69;2063080;28;47983;-62
2021/12/13 03:35:38;;;;;;;;;18.25;16.75;;;;;13.18;69.50;102084.59;2062323;28;48395;-60
2021/12/13 03:37:08;;;;;;;;;16.25;16.25;;;;;13.19;69.40;102085.47;2053567;28;47405;-60
2021/12/13 03:38:14;;;;;;;;;20.75;19.25;;;;;13.18;69.52;102087.25;2055379;28;45857;-60
2021/12/13 03:39:41;;;;;;;;;20.50;18.50;;;;;13.19;69.49;102089.03;2062742;28;48253;-60
2021/12/13 03:40:42;;;;;;;;;22.50;21.00;;;;;13.18;69.67;102083.69;2048372;28;48531;-61
2021/12/13 03:41:49;;;;;;;;;17.25;17.25;;;;;13.17;69.46;102085.47;2062779;28;48247;-61
2021/12/13 03:42:54;;;;;;;;;15.75;15.75;;;;;13.17;69.39;102082.81;2063026;28;47505;-61
2021/12/13 03:44:02;;;;;;;;;17.00;14.50;;;;;13.18;69.45;102075.69;2062843;28;48188;-61
2021/12/13 03:45:24;;;;;;;;;23.80;22.00;;;;;13.17;69.45;102073.91;2058740;28;46104;-60
2021/12/13 03:46:29;;;;;;;;;17.00;15.25;;;;;13.17;69.46;102079.25;2061056;28;48482;-60
2021/12/13 03:47:38;;;;;;;;;17.25;17.25;;;;;13.18;69.35;102078.34;2062872;28;47391;-60
2021/12/13 03:48:46;;;;;;;;;13.75;12.50;;;;;13.17;69.47;102077.47;2062698;28;47506;-61
2021/12/13 03:49:53;;;;;;;;;18.75;17.75;;;;;13.16;69.47;102073.03;2062457;28;46890;-59
2021/12/13 03:50:58;;;;;;;;;13.00;12.75;;;;;13.17;69.56;102077.47;2062705;28;47279;-61
2021/12/13 03:51:59;;;;;;;;;21.00;20.00;;;;;13.16;69.52;102065.03;2062083;28;45330;-59
2021/12/13 03:53:05;;;;;;;;;20.00;18.67;;;;;13.16;69.36;102064.16;2062556;28;47285;-60
2021/12/13 03:54:09;;;;;;;;;17.75;17.75;;;;;13.16;69.63;102065.03;2053700;28;45549;-61
2021/12/13 03:55:13;;;;;;;;;18.25;15.00;;;;;13.17;69.26;102069.47;2048897;28;48360;-60
2021/12/13 03:56:17;;;;;;;;;23.00;19.25;;;;;13.17;69.42;102065.94;2062210;28;47480;-60
2021/12/13 03:57:18;;;;;;;;;22.00;21.25;;;;;13.16;69.53;102065.03;2062812;28;47125;-60
2021/12/13 03:58:21;;;;;;;;;15.33;14.00;;;;;13.16;69.40;102061.50;2062082;28;47158;-60
2021/12/13 03:59:27;;;;;;;;;18.50;17.75;;;;;13.15;69.58;102060.63;2062654;28;46823;-60
2021/12/13 04:00:33;;;;;;;;;20.25;16.50;;;;;13.16;69.50;102062.38;2061035;28;48400;-60
2021/12/13 04:01:44;;;;;;;;;20.50;19.25;;;;;13.15;69.50;102063.28;2062575;28;48387;-59
2021/12/13 04:02:46;;;;;;;;;19.50;19.00;;;;;13.14;69.46;102057.97;2059867;28;46386;-60
2021/12/13 04:03:52;;;;;;;;;18.75;17.75;;;;;13.15;69.31;102062.41;2062524;28;47333;-60
2021/12/13 04:05:02;;;;;;;;;19.25;19.00;;;;;13.14;69.22;102064.19;2058469;28;47254;-61
2021/12/13 04:06:03;;;;;;;;;21.75;18.00;;;;;13.14;69.17;102069.50;2061491;28;48454;-61
2021/12/13 04:07:22;;;;;;;;;19.25;16.75;;;;;13.14;69.20;102063.31;2062800;28;47379;-61
2021/12/13 04:08:24;;;;;;;;;25.00;21.75;;;;;13.13;69.27;102065.09;2055287;28;48600;-59
2021/12/13 04:09:27;;;;;;;;;18.20;16.80;;;;;13.13;69.27;102069.53;2062779;28;48375;-60
2021/12/13 04:10:36;;;;;;;;;20.25;19.50;;;;;13.12;69.36;102071.31;2060048;28;48419;-62
2021/12/13 04:11:42;;;;;;;;;21.50;19.25;;;;;13.13;69.30;102066.88;2062461;28;47941;-61
2021/12/13 04:12:49;;;;;;;;;17.25;17.25;;;;;13.12;69.32;102071.31;2062461;28;47221;-61
2021/12/13 04:13:56;;;;;;;;;18.25;16.50;;;;;13.13;69.50;102069.53;2061737;28;48000;-61
2021/12/13 04:15:02;;;;;;;;;19.40;19.40;;;;;13.12;69.25;102067.78;2061042;28;48477;-62
2021/12/13 04:19:58;;;;;;;;;24.80;23.20;;;;;13.12;69.25;102071.31;2056424;28;47454;-61
2021/12/13 04:21:05;;;;;;;;;20.20;18.40;;;;;13.11;69.44;102066.88;2054174;28;48367;-61
2021/12/13 04:22:09;;;;;;;;;19.00;17.60;;;;;13.11;69.34;102066.00;2053109;28;47687;-60
2021/12/13 04:23:17;;;;;;;;;21.00;19.00;;;;;13.12;69.37;102070.44;2059490;28;47502;-60
2021/12/13 04:24:29;;;;;;;;;19.50;16.25;;;;;13.10;69.22;102070.47;2053805;28;48020;-61
2021/12/13 04:25:34;;;;;;;;;17.50;17.00;;;;;13.11;69.27;102072.22;2052160;28;47366;-61
2021/12/13 04:26:45;;;;;;;;;18.40;17.80;;;;;13.11;69.36;102068.66;2062675;28;47387;-60
2021/12/13 04:27:55;;;;;;;;;21.80;19.40;;;;;13.11;69.30;102074.00;2056019;28;47653;-60
2021/12/13 04:28:59;;;;;;;;;19.25;19.00;;;;;13.11;69.28;102066.88;2056944;28;47234;-60
2021/12/13 04:30:29;;;;;;;;;18.60;15.60;;;;;13.12;69.28;102071.31;2061654;28;48446;-60
2021/12/13 04:31:36;;;;;;;;;15.75;15.25;;;;;13.12;69.32;102067.78;2049962;28;48229;-61
2021/12/13 04:32:44;;;;;;;;;18.75;16.25;;;;;13.12;69.24;102065.09;2062823;28;47244;-61
2021/12/13 04:33:49;;;;;;;;;17.25;16.25;;;;;13.13;69.29;102072.19;2062694;28;48690;-61
2021/12/13 04:34:55;;;;;;;;;14.75;13.75;;;;;13.12;69.17;102070.44;2058346;28;45533;-61
2021/12/13 04:36:12;;;;;;;;;17.75;15.75;;;;;13.13;69.12;102075.75;2057864;28;47572;-61
2021/12/13 04:37:16;;;;;;;;;5.50;5.00;;;;;13.12;69.08;102065.09;2060935;28;47538;-60
2021/12/13 04:38:22;;;;;;;;;15.00;15.00;;;;;13.12;69.07;102071.31;2061965;28;48568;-61
2021/12/13 04:39:33;;;;;;;;;20.00;16.50;;;;;13.12;68.83;102067.78;2062961;28;46291;-60
2021/12/13 04:40:38;;;;;;;;;15.00;13.25;;;;;13.13;69.25;102069.53;2060919;28;48372;-61
2021/12/13 04:41:51;;;;;;;;;17.25;14.00;;;;;13.11;69.27;102072.22;2061112;28;47337;-60
2021/12/13 04:43:09;;;;;;;;;16.75;15.25;;;;;13.11;69.07;102068.66;2062715;28;47506;-61
2021/12/13 04:44:31;;;;;;;;;12.00;9.60;;;;;13.10;69.08;102073.13;2058584;28;47293;-60
2021/12/13 04:45:33;;;;;;;;;18.00;17.00;;;;;13.11;69.03;102076.66;2060795;28;48255;-60
2021/12/13 04:46:38;;;;;;;;;15.00;14.75;;;;;13.10;69.19;102067.78;2062419;28;47410;-61
2021/12/13 04:47:48;;;;;;;;;17.50;15.75;;;;;13.10;69.30;102075.78;2062207;28;46946;-60
2021/12/13 04:48:55;;;;;;;;;17.75;17.50;;;;;13.11;69.07;102074.88;2062439;28;47196;-61
2021/12/13 04:50:12;;;;;;;;;16.00;16.00;;;;;13.11;68.88;102077.56;2060138;28;49082;-60
2021/12/13 04:51:16;;;;;;;;;17.00;16.25;;;;;13.12;69.05;102081.09;2052884;28;47406;-60
2021/12/13 04:52:20;;;;;;;;;19.25;17.00;;;;;13.12;68.96;102081.97;2053519;28;47679;-61
2021/12/13 04:53:25;;;;;;;;;20.50;16.25;;;;;13.13;68.88;102090.84;2060721;28;47272;-60
2021/12/13 04:54:29;;;;;;;;;16.80;14.40;;;;;13.11;69.03;102082.88;2062422;28;48006;-60
2021/12/13 04:55:34;;;;;;;;;16.00;14.75;;;;;13.11;68.97;102082.88;2060981;28;47195;-60
2021/12/13 04:56:35;;;;;;;;;14.80;14.00;;;;;13.11;68.97;102084.66;2059581;28;47527;-61
2021/12/13 04:57:36;;;;;;;;;17.00;15.50;;;;;13.11;68.74;102085.56;2062560;28;48680;-61
2021/12/13 04:58:39;;;;;;;;;21.00;20.00;;;;;13.11;69.27;102084.66;2062361;28;46961;-61
2021/12/13 04:59:39;;;;;;;;;16.25;15.75;;;;;13.12;69.00;102083.75;2061932;28;47214;-60
2021/12/13 05:00:44;;;;;;;;;16.00;15.33;;;;;13.11;68.90;102085.56;2061597;28;48489;-60
2021/12/13 05:01:53;;;;;;;;;15.40;15.40;;;;;13.11;68.86;102082.88;2059735;28;48248;-60
2021/12/13 05:02:58;;;;;;;;;18.25;18.00;;;;;13.11;68.86;102085.56;2062654;28;48172;-61
2021/12/13 05:04:03;;;;;;;;;20.00;19.00;;;;;13.11;69.01;102088.22;2061926;28;48278;-61
2021/12/13 05:05:05;;;;;;;;;18.75;16.25;;;;;13.12;68.96;102092.66;2060682;28;48209;-61
2021/12/13 05:06:15;;;;;;;;;19.25;19.25;;;;;13.10;69.01;102089.13;2062052;28;47216;-61
2021/12/13 05:07:17;;;;;;;;;18.25;17.75;;;;;13.11;68.96;102090.88;2059079;28;48150;-61
2021/12/13 05:08:19;;;;;;;;;14.50;13.75;;;;;13.11;68.92;102095.31;2062604;28;46600;-61
2021/12/13 05:09:22;;;;;;;;;23.00;18.75;;;;;13.10;69.03;102089.13;2063173;28;45405;-61
2021/12/13 05:10:25;;;;;;;;;19.00;16.00;;;;;13.10;69.00;102088.22;2060745;28;47627;-61
2021/12/13 05:11:33;;;;;;;;;17.00;15.50;;;;;13.10;69.00;102088.22;2064127;28;45483;-61
2021/12/13 05:12:34;;;;;;;;;16.00;13.00;;;;;13.11;69.11;102095.31;2063953;28;47718;-61
2021/12/13 05:13:48;;;;;;;;;18.00;16.33;;;;;13.09;68.94;102098.00;2063778;28;47992;-62
2021/12/13 05:14:55;;;;;;;;;15.75;14.25;;;;;13.09;68.83;102097.13;2062499;28;47383;-60
2021/12/13 05:16:08;;;;;;;;;16.25;15.50;;;;;13.09;68.95;102095.34;2062187;28;47557;-60
2021/12/13 05:17:20;;;;;;;;;16.25;15.25;;;;;13.08;68.58;102087.34;2064371;28;46172;-61
2021/12/13 05:18:26;;;;;;;;;17.00;17.00;;;;;13.08;68.87;102096.22;2063027;28;47360;-60
2021/12/13 05:19:34;;;;;;;;;19.00;17.50;;;;;13.08;68.83;102096.22;2063928;28;47158;-61
2021/12/13 05:20:39;;;;;;;;;17.75;16.50;;;;;13.07;68.88;102090.91;2061834;28;46208;-62
2021/12/13 05:21:50;;;;;;;;;17.00;16.25;;;;;13.07;68.56;102094.44;2063345;28;48230;-61